• Join FlightAware (Why Join?)
  • Login
  • US Flag 
04:03AM EST


 

Airport Tracker/Info


-or-


 

Live Flight TrackerFlight Track Log ✈ N865JM ✈ 26-Jan-2014 ✈ KPBI - KTEB

Flight Track Log - Related Links

Times and Time Zones

All times are in EST time to prevent confusion due to time zone crossing. See the N865JM flight status page for this flight to view local times or setup timezone preferences in your user account.

Time Position Orientation Groundspeed Altitude Reporting Facility
EST Latitude Longitude Course Direction KTS MPH feet Rate Location/Type
07:43PM 26.6900 -79.9933 43° Northeast 262 302 5,000  Level Miami Center
07:44PM 26.7583 -79.9231 43° Northeast 266 306 9,700 4,200 Climbing Miami Center
07:45PM 26.8161 -79.8642 42° Northeast 294 338 13,500 2,100 Climbing Miami Center
07:46PM 26.8828 -79.7681 52° Northeast 338 389 14,000 240 Climbing Miami Center
07:47PM 26.9494 -79.6669 53° Northeast 392 451 14,000 360 Level Miami Center
07:48PM 27.0161 -79.5636 54° Northeast 415 478 14,800 1,620 Climbing Miami Center
07:49PM 27.0783 -79.4719 53° Northeast 415 478 17,300 2,340 Climbing Miami Center
07:50PM 27.1450 -79.3683 54° Northeast 415 478 19,500 2,160 Climbing Miami Center
07:51PM 27.2242 -79.2461 54° Northeast 426 490 21,700 1,740 Climbing Miami Center
07:52PM 27.2992 -79.1333 53° Northeast 446 513 23,000 900 Climbing Miami Center
07:53PM 27.3844 -79.0181 50° Northeast 460 529 23,600 1,080 Climbing Miami Center
07:54PM 27.4792 -78.9636 27° Northeast 479 551 25,200 1,920 Climbing Miami Center
07:55PM 27.6278 -78.9381 North 454 522 27,500 1,800 Climbing Miami Center
07:56PM 27.7556 -78.9194 North 452 520 28,900 1,320 Climbing Miami Center
07:57PM 27.8831 -78.9006 North 452 520 30,200 1,440 Climbing Miami Center
07:58PM 28.0128 -78.8817 North 459 528 31,800 1,560 Climbing Miami Center
07:59PM 28.1383 -78.8628 North 464 534 33,400 1,500 Climbing Miami Center
08:00PM 28.2661 -78.8436 North 464 534 34,800 1,320 Climbing Miami Center
08:01PM 28.3914 -78.8247 North 458 527 36,100 1,020 Climbing Miami Center
08:02PM 28.5150 -78.8081 North 453 521 36,900 420 Climbing Miami Center
08:03PM 28.6444 -78.7889 North 453 521 37,000  Climbing Miami Center
08:04PM 28.7700 -78.7697 North 458 527 37,000  Level Miami Center
08:05PM 28.9039 -78.7508 North 464 534 37,000 -60 Level Miami Center
08:06PM 29.0336 -78.7292 North 470 541 36,900  Descending Miami Center
08:07PM 29.1631 -78.7100 North 470 541 37,000  Climbing Miami Center
08:08PM 29.2947 -78.6908 North 462 532 37,000  Level Miami Center
08:09PM 29.4264 -78.6739 North 468 539 37,000  Level Miami Center
08:10PM 29.5539 -78.6547 North 468 539 37,000  Level Miami Center
08:11PM 29.7314 -78.6189 10° North 468 539 37,000  Level Jacksonville Center
08:12PM 29.8581 -78.5964 North 463 533 37,000  Level Jacksonville Center
08:13PM 29.9889 -78.5786 North 463 533 37,000  Level Jacksonville Center
08:14PM 30.1242 -78.5678 North 468 539 37,000  Level Jacksonville Center
08:15PM 30.2464 -78.5408 11° North 468 539 37,000  Level Jacksonville Center
08:16PM 30.3753 -78.5203 North 454 522 37,000  Level Jacksonville Center
08:17PM 30.5103 -78.5022 North 477 549 37,000  Level Jacksonville Center
08:18PM 30.6328 -78.4797 North 458 527 37,000  Level Jacksonville Center
08:19PM 30.7717 -78.4586 North 477 549 37,000  Level Jacksonville Center
08:20PM 30.9006 -78.4406 North 476 548 37,000  Level Jacksonville Center
08:21PM 31.0311 -78.4125 10° North 477 549 37,000  Level Jacksonville Center
08:22PM 31.1497 -78.3997 North 477 549 37,000  Level Jacksonville Center
08:23PM 31.2806 -78.3811 North 483 556 37,000  Level Jacksonville Center
08:24PM 31.4153 -78.3600 North 483 556 37,000  Level Jacksonville Center
08:25PM 31.5481 -78.3367 North 477 549 37,000  Level Jacksonville Center
08:26PM 31.6850 -78.3153 North 482 555 37,000  Level Jacksonville Center
08:27PM 31.8139 -78.2967 North 481 554 37,000  Level Jacksonville Center
08:28PM 31.9489 -78.2753 North 475 547 37,000  Level Jacksonville Center
08:29PM 32.0836 -78.2511 North 475 547 37,000 -60 Level Jacksonville Center
08:30PM 32.2267 -78.2244 North 482 555 36,900 -60 Descending Jacksonville Center
08:31PM 32.3592 -78.2003 North 482 555 36,900  Level Jacksonville Center
08:32PM 32.4964 -78.1858 North 482 555 37,000  Climbing Jacksonville Center
08:33PM 32.6292 -78.1617 North 482 555 37,000  Level Jacksonville Center
08:34PM 32.7639 -78.1375 North 482 555 37,000  Level Jacksonville Center
08:35PM 32.8967 -78.1181 North 482 555 37,000  Level Jacksonville Center
08:36PM 33.0317 -78.0958 North 482 555 37,000  Level Jacksonville Center
08:37PM 33.1664 -78.0739 North 482 555 37,000  Level Jacksonville Center
08:38PM 33.2989 -78.0492 North 482 555 37,000  Level Jacksonville Center
08:40PM 33.4586 -78.0258 North 481 554 37,000  Level Washington Center
08:41PM 33.5947 -78.0050 North 481 554 37,000  Level Washington Center
08:42PM 33.7286 -77.9814 North 487 560 37,000  Level Washington Center
08:43PM 33.8669 -77.9578 North 487 560 37,000  Level Washington Center
08:44PM 34.0197 -77.9319 North 493 567 37,000  Level Washington Center
08:45PM 34.1556 -77.9083 North 493 567 37,000  Level Washington Center
08:46PM 34.2917 -77.8869 North 493 567 37,000  Level Washington Center
08:47PM 34.4275 -77.8783 North 488 562 37,000  Level Washington Center
08:48PM 34.5611 -77.8744 North 483 556 37,000  Level Washington Center
08:49PM 34.6967 -77.8731 360° North 478 550 37,000  Level Washington Center
08:50PM 34.8219 -77.8689 North 473 544 37,000  Level Washington Center
08:51PM 34.9578 -77.8678 360° North 468 539 37,000  Level Washington Center
08:52PM 35.0850 -77.8636 North 468 539 37,000  Level Washington Center
08:53PM 35.2164 -77.8622 360° North 468 539 37,000  Level Washington Center
08:54PM 35.3500 -77.8586 North 468 539 37,000  Level Washington Center
08:55PM 35.4814 -77.8597 360° North 468 539 37,000  Level Washington Center
08:56PM 35.6136 -77.8303 10° North 468 539 37,000  Level Washington Center
08:57PM 35.7478 -77.7853 15° North 474 545 37,000  Level Washington Center
08:58PM 35.8758 -77.7428 15° North 479 551 37,000  Level Washington Center
08:59PM 36.0083 -77.6975 15° North 484 557 37,000  Level Washington Center
09:00PM 36.1403 -77.6547 15° North 484 557 37,000  Level Washington Center
09:01PM 36.2686 -77.6067 17° North 479 551 37,000  Level Washington Center
09:02PM 36.4006 -77.5636 15° North 479 551 37,000  Level Washington Center
09:03PM 36.5267 -77.5203 15° North 473 544 37,000  Level Washington Center
09:04PM 36.6608 -77.4742 15° North 482 555 37,000  Level Washington Center
09:05PM 36.7931 -77.4283 16° North 487 560 37,000  Level Washington Center
09:06PM 36.9250 -77.3819 16° North 487 560 37,000  Level Washington Center
09:07PM 37.0572 -77.3356 16° North 487 560 37,000  Level Washington Center
09:08PM 37.1892 -77.2917 15° North 487 560 37,000  Level Washington Center
09:09PM 37.3192 -77.2450 16° North 482 555 37,000  Level Washington Center
09:10PM 37.4514 -77.1981 16° North 482 555 37,000  Level Washington Center
09:11PM 37.5833 -77.1536 15° North 482 555 37,000  Level Washington Center
09:12PM 37.7133 -77.1039 17° North 482 555 37,000  Level Washington Center
09:13PM 37.8453 -77.0564 16° North 482 555 37,000 -240 Level Washington Center
09:14PM 37.9733 -76.9853 24° Northeast 482 555 36,600 -480 Descending Washington Center
09:15PM 38.0992 -76.9083 26° Northeast 494 568 36,100 -540 Descending Washington Center
09:16PM 38.2231 -76.8286 27° Northeast 499 574 35,600 -660 Descending Washington Center
09:17PM 38.3364 -76.7592 26° Northeast 499 574 34,800 -5,700 Descending Washington Center
09:18PM 38.4769 -76.6683 27° Northeast 499 574 24,000 -1,980 Descending Washington Center
09:19PM 38.6028 -76.5906 26° Northeast 499 574 30,900 2,400 Climbing Washington Center
09:20PM 38.7264 -76.5097 27° Northeast 499 574 28,900 -2,040 Descending Washington Center
09:21PM 38.8519 -76.4314 26° Northeast 493 567 26,900 -2,160 Descending Washington Center
09:22PM 38.9733 -76.3525 27° Northeast 493 567 24,700 -1,440 Descending Washington Center
09:23PM 39.0947 -76.2736 27° Northeast 488 562 24,000 -360 Descending Washington Center
09:24PM 39.1828 -76.1886 37° Northeast 488 562 24,000  Level Washington Center
09:25PM 39.3022 -76.0608 40° Northeast 500 575 24,000 -360 Level Washington Center
09:26PM 39.4233 -75.9517 35° Northeast 488 562 23,300 -2,160 Descending Washington Center
09:27PM 39.6000 -75.7833 36° Northeast 461 531 18,300 -3,000 Descending Philadelphia TRACON
09:28PM 39.7167 -75.6833 33° Northeast 451 519 15,100 -2,460 Descending Philadelphia TRACON
09:30PM 39.8167 -75.5833 38° Northeast 422 486 13,000 -1,020 Descending Philadelphia TRACON
09:31PM 39.9167 -75.4833 37° Northeast 434 499 13,000  Level Philadelphia TRACON
09:32PM 40.0167 -75.4000 33° Northeast 427 491 13,000  Level Philadelphia TRACON
09:32PM 40.1000 -75.3167 37° Northeast 432 497 13,000 -480 Level Philadelphia TRACON
09:33PM 40.2000 -75.2333 32° Northeast 417 480 12,100 -1,560 Descending Philadelphia TRACON
09:36PM 40.3667 -75.0500 40° Northeast 326 375 8,000 -1,620 Descending New York TRACON
09:37PM 40.4167 -74.9667 52° Northeast 305 351 7,000 -1,020 Descending New York TRACON
09:38PM 40.4833 -74.8833 44° Northeast 311 358 6,000 -1,080 Descending New York TRACON
09:39PM 40.5333 -74.8000 52° Northeast 311 358 4,900 -960 Descending New York TRACON
09:40PM 40.6167 -74.7333 31° Northeast 307 353 4,000 -480 Descending New York TRACON
09:41PM 40.6833 -74.6833 30° Northeast 296 341 4,000 -240 Level New York TRACON
09:42PM 40.7500 -74.6167 37° Northeast 296 341 3,600 -480 Descending New York TRACON
09:43PM 40.8000 -74.5333 52° Northeast 294 338 3,100 -300 Descending New York TRACON
09:44PM 40.8667 -74.4667 37° Northeast 280 322 3,000 -60 Descending New York TRACON
09:45PM 40.9333 -74.3833 43° Northeast 290 334 3,000  Level New York TRACON
09:46PM 40.9667 -74.3000 62° Northeast 292 336 3,000 -240 Level New York TRACON
09:47PM 41.0000 -74.2167 62° Northeast 282 325 2,600 -480 Descending New York TRACON
09:48PM 41.0167 -74.1167 78° East 242 278 2,100 -300 Descending New York TRACON
09:49PM 41.0167 -74.0667 90° East 176 203 2,000 -60 Descending New York TRACON
09:50PM 40.9667 -74.0500 166° South 146 168 2,000 -120 Level New York TRACON
09:51PM 40.9333 -74.0500 180° South 129 148 1,800 -480 Descending New York TRACON
09:52PM 40.9000 -74.0500 180° South 108 124 1,100 -720 Descending New York TRACON
09:53PM 40.8667 -74.0500 180° South 116 133 400 -720 Descending New York TRACON